Time;durP1;ratioP1;P1;durP2;ratioP2;P2;SDS_P1;SDS_P2;PMS_P1;PMS_P2;Temp;Humidity;BMP_temperature;BMP_pressure;BME280_temperature;BME280_humidity;BME280_pressure;Samples;Min_cycle;Max_cycle;Signal;HPM_P1;HPM_P2
2022/10/21 00:02:03;;;;;;;18.95;12.52;;;13.10;54.80;;;;;;5091621;28;20379;-85
2022/10/21 00:04:30;;;;;;;18.20;12.23;;;13.10;55.40;;;;;;5075674;28;20031;-85
2022/10/21 00:06:56;;;;;;;18.92;10.88;;;13.30;54.50;;;;;;5076054;28;20031;-85
2022/10/21 00:09:21;;;;;;;19.92;13.00;;;13.40;54.50;;;;;;5080599;28;20413;-86
2022/10/21 00:11:47;;;;;;;19.02;11.45;;;13.40;54.10;;;;;;5078592;28;20032;-86
2022/10/21 00:14:13;;;;;;;18.38;11.88;;;13.30;53.90;;;;;;5074889;28;20028;-86
2022/10/21 00:16:39;;;;;;;19.63;12.23;;;13.30;54.10;;;;;;5086949;28;20016;-85
2022/10/21 00:19:05;;;;;;;24.80;14.55;;;13.30;53.90;;;;;;5075046;28;20030;-86
2022/10/21 00:21:30;;;;;;;28.85;17.48;;;13.00;54.30;;;;;;5080999;28;20024;-86
2022/10/21 00:23:56;;;;;;;33.17;17.95;;;13.00;54.40;;;;;;5084453;28;20111;-85
2022/10/21 00:26:22;;;;;;;25.83;15.55;;;13.00;54.30;;;;;;5092332;28;20062;-86
2022/10/21 00:28:47;;;;;;;24.23;14.52;;;12.90;54.10;;;;;;5086868;28;20107;-87
2022/10/21 00:31:14;;;;;;;22.23;13.95;;;12.70;54.80;;;;;;5074452;28;20071;-86
2022/10/21 00:33:41;;;;;;;19.25;13.25;;;12.50;54.80;;;;;;5086484;28;20106;-86
2022/10/21 00:36:13;;;;;;;25.90;15.15;;;12.40;54.70;;;;;;5094033;28;20028;-86
2022/10/21 00:38:39;;;;;;;23.52;13.70;;;12.40;54.80;;;;;;5094633;28;20055;-87
2022/10/21 00:41:05;;;;;;;20.58;12.18;;;12.20;54.60;;;;;;5096060;28;20098;-86
2022/10/21 00:43:31;;;;;;;22.20;12.90;;;12.10;54.90;;;;;;5080722;28;20439;-86
2022/10/21 00:46:04;;;;;;;18.23;12.35;;;12.30;55.30;;;;;;5093906;28;20387;-86
2022/10/21 00:48:52;;;;;;;19.33;11.70;;;12.50;55.50;;;;;;5083467;28;20067;-86
2022/10/21 00:51:18;;;;;;;21.17;12.32;;;12.60;55.40;;;;;;5091637;28;20035;-86
2022/10/21 00:53:48;;;;;;;20.75;12.23;;;12.50;55.20;;;;;;5095377;28;20020;-87
2022/10/21 00:56:19;;;;;;;22.20;13.47;;;12.40;54.50;;;;;;5094968;28;20023;-85
2022/10/21 00:58:47;;;;;;;19.70;12.35;;;12.30;54.70;;;;;;5093758;28;20029;-86
2022/10/21 01:01:13;;;;;;;20.13;12.43;;;12.30;54.60;;;;;;5089323;28;20085;-88
2022/10/21 01:03:38;;;;;;;20.23;12.82;;;12.30;54.70;;;;;;5073079;28;20020;-88
2022/10/21 01:06:08;;;;;;;18.58;11.68;;;12.20;54.90;;;;;;5073495;28;20045;-87
2022/10/21 01:08:35;;;;;;;19.20;12.18;;;12.20;54.60;;;;;;5072812;28;20036;-87
2022/10/21 01:11:01;;;;;;;18.42;12.00;;;12.30;55.30;;;;;;5090068;28;20024;-88
2022/10/21 01:14:09;;;;;;;17.20;10.68;;;12.40;55.40;;;;;;5073521;28;20025;-85
2022/10/21 01:16:35;;;;;;;17.42;11.05;;;12.60;55.20;;;;;;5073159;28;20077;-89
2022/10/21 01:19:25;;;;;;;17.80;11.43;;;12.70;54.60;;;;;;5074230;28;20024;-87
2022/10/21 01:22:05;;;;;;;;;;;12.80;54.30;;;;;;5077291;28;20020;-87
2022/10/21 01:24:38;;;;;;;12.77;7.87;;;12.60;55.20;;;;;;5092899;28;20347;-88
2022/10/21 01:27:06;;;;;;;17.48;10.70;;;12.60;54.10;;;;;;5087497;28;20020;-87
2022/10/21 01:29:56;;;;;;;18.05;11.40;;;12.50;54.00;;;;;;5077208;28;20475;-87
2022/10/21 01:32:30;;;;;;;18.20;10.47;;;12.50;54.10;;;;;;5090694;28;20021;-87
2022/10/21 01:35:17;;;;;;;19.52;12.27;;;12.40;53.90;;;;;;5074834;28;20481;-85
2022/10/21 01:38:01;;;;;;;18.52;10.75;;;12.20;54.90;;;;;;5073772;28;20028;-86
2022/10/21 01:40:46;;;;;;;18.17;11.32;;;12.30;55.20;;;;;;5073390;28;20035;-88
2022/10/21 01:43:33;;;;;;;23.15;12.30;;;12.30;55.30;;;;;;5077688;28;20028;-88
2022/10/21 01:46:03;;;;;;;18.98;11.32;;;12.20;54.60;;;;;;5072273;28;20480;-88
2022/10/21 01:48:42;;;;;;;21.50;11.88;;;12.10;54.70;;;;;;5072985;28;20090;-87
2022/10/21 01:51:08;;;;;;;20.58;12.50;;;12.00;54.70;;;;;;5084752;28;20108;-86
2022/10/21 01:53:43;;;;;;;18.98;11.60;;;11.90;54.70;;;;;;5072600;28;20017;-87
2022/10/21 01:56:10;;;;;;;19.77;12.02;;;11.70;55.30;;;;;;5072753;28;20066;-86
2022/10/21 01:58:40;;;;;;;16.35;10.80;;;11.60;55.60;;;;;;5072525;28;20020;-88
2022/10/21 02:01:08;;;;;;;15.15;9.48;;;11.50;56.00;;;;;;5073389;28;20085;-88
2022/10/21 02:03:42;;;;;;;19.50;12.50;;;11.60;56.00;;;;;;5074346;28;20016;-88
2022/10/21 02:06:08;;;;;;;19.65;12.93;;;11.80;56.00;;;;;;5091541;28;20027;-88
2022/10/21 02:08:34;;;;;;;18.83;11.50;;;12.10;55.70;;;;;;5075293;28;20028;-89
2022/10/21 02:11:04;;;;;;;18.25;11.05;;;11.90;55.10;;;;;;5073617;28;20032;-88
2022/10/21 02:13:36;;;;;;;19.92;11.57;;;11.90;54.90;;;;;;5075886;28;20028;-85
2022/10/21 02:16:08;;;;;;;16.48;10.45;;;12.00;55.00;;;;;;5072477;28;20111;-85
2022/10/21 02:18:33;;;;;;;18.58;11.40;;;12.00;54.50;;;;;;5072132;28;20474;-86
2022/10/21 02:21:05;;;;;;;17.58;10.90;;;11.90;54.60;;;;;;5073631;28;20026;-87
2022/10/21 02:23:56;;;;;;;17.30;10.45;;;12.00;54.80;;;;;;5080635;28;20172;-87
2022/10/21 02:26:24;;;;;;;17.92;10.88;;;12.10;54.80;;;;;;5033755;28;20041;-88
2022/10/21 02:28:53;;;;;;;17.70;10.85;;;12.20;55.60;;;;;;5033795;28;20041;-89
2022/10/21 02:31:38;;;;;;;17.38;10.57;;;12.30;55.10;;;;;;5000945;28;20026;-87
2022/10/21 02:34:29;;;;;;;21.33;10.73;;;12.20;54.40;;;;;;5013148;28;20022;-85
2022/10/21 02:37:09;;;;;;;16.15;10.30;;;12.20;54.70;;;;;;5014690;28;20108;-86
2022/10/21 02:40:00;;;;;;;19.30;11.50;;;12.20;54.60;;;;;;4999640;28;20030;-88
2022/10/21 02:42:32;;;;;;;18.08;10.00;;;12.20;54.90;;;;;;5004487;28;20014;-87
2022/10/21 02:45:00;;;;;;;17.80;11.05;;;12.20;54.90;;;;;;5016180;28;20068;-84
2022/10/21 02:47:26;;;;;;;18.55;11.38;;;12.20;54.90;;;;;;5006561;28;20456;-89
2022/10/21 02:49:51;;;;;;;18.80;11.68;;;12.20;54.60;;;;;;5034702;28;20045;-87
2022/10/21 02:52:17;;;;;;;20.10;11.60;;;12.10;54.90;;;;;;5036029;28;20029;-85
2022/10/21 02:54:43;;;;;;;18.83;11.25;;;12.20;54.90;;;;;;5018849;28;20033;-88
2022/10/21 02:57:08;;;;;;;18.17;11.18;;;12.40;54.80;;;;;;5014093;28;20030;-85
2022/10/21 02:59:34;;;;;;;16.58;10.30;;;12.20;53.90;;;;;;5002913;28;20077;-84
2022/10/21 03:02:00;;;;;;;21.15;12.07;;;12.10;54.40;;;;;;5017932;28;20022;-84
2022/10/21 03:04:25;;;;;;;19.30;11.63;;;12.00;54.50;;;;;;5086372;28;20520;-85
2022/10/21 03:06:51;;;;;;;16.42;10.90;;;11.80;54.40;;;;;;5093414;28;20465;-84
2022/10/21 03:09:17;;;;;;;18.10;11.13;;;11.60;54.20;;;;;;5090341;28;20065;-89
2022/10/21 03:11:42;;;;;;;18.95;10.75;;;11.40;54.60;;;;;;5095448;28;20084;-87
2022/10/21 03:14:08;;;;;;;17.33;10.50;;;11.30;54.70;;;;;;5094923;28;20374;-90
2022/10/21 03:16:34;;;;;;;19.88;11.63;;;11.30;55.10;;;;;;5096020;28;20054;-85
2022/10/21 03:18:59;;;;;;;16.63;10.23;;;11.20;55.10;;;;;;5095958;28;20362;-84
2022/10/21 03:21:25;;;;;;;18.40;11.45;;;11.10;55.40;;;;;;5094231;28;20463;-87
2022/10/21 03:23:50;;;;;;;19.13;11.68;;;11.10;55.90;;;;;;5094800;28;20016;-84
2022/10/21 03:26:16;;;;;;;19.80;11.55;;;11.30;56.20;;;;;;5095456;28;20024;-88
2022/10/21 03:28:42;;;;;;;19.58;10.88;;;11.40;56.10;;;;;;5096107;28;20016;-87
2022/10/21 03:31:08;;;;;;;18.27;11.15;;;11.70;55.80;;;;;;5095077;28;20028;-90
2022/10/21 03:33:33;;;;;;;18.45;11.05;;;11.80;55.10;;;;;;5094813;28;20447;-88
2022/10/21 03:35:59;;;;;;;18.13;11.02;;;11.70;55.40;;;;;;5095820;28;20020;-85
2022/10/21 03:38:25;;;;;;;16.15;9.93;;;11.70;54.90;;;;;;5095163;28;20404;-87
2022/10/21 03:40:50;;;;;;;16.70;10.60;;;11.80;54.20;;;;;;5094002;28;20515;-85
2022/10/21 03:43:16;;;;;;;23.10;9.88;;;11.60;54.60;;;;;;5094196;28;20373;-88
2022/10/21 03:45:42;;;;;;;18.23;10.82;;;11.40;54.40;;;;;;5095875;28;20075;-85
2022/10/21 03:48:08;;;;;;;21.88;11.95;;;11.20;54.50;;;;;;5095801;28;20040;-90
2022/10/21 03:50:33;;;;;;;19.85;10.80;;;11.20;54.60;;;;;;5084582;28;20068;-87
2022/10/21 03:52:59;;;;;;;20.73;12.38;;;11.10;54.80;;;;;;5082241;28;20085;-86
2022/10/21 03:55:25;;;;;;;18.45;11.43;;;11.10;54.80;;;;;;5090383;28;20090;-92
2022/10/21 03:57:52;;;;;;;27.92;12.90;;;11.10;54.90;;;;;;5081160;28;20032;-91
2022/10/21 04:00:18;;;;;;;26.75;13.85;;;11.10;55.00;;;;;;5088057;28;20020;-88
2022/10/21 04:04:04;;;;;;;29.20;13.30;;;11.30;55.30;;;;;;5105532;27;20367;-89
2022/10/21 04:06:30;;;;;;;38.60;14.38;;;11.50;55.60;;;;;;5076397;28;20103;-89
2022/10/21 04:09:14;;;;;;;42.50;14.65;;;11.50;54.90;;;;;;5077910;28;20085;-89
2022/10/21 04:11:42;;;;;;;29.40;13.75;;;11.50;54.70;;;;;;5061214;28;20045;-83
2022/10/21 04:14:08;;;;;;;41.10;14.20;;;11.40;55.10;;;;;;5046655;28;20376;-89
2022/10/21 04:16:33;;;;;;;33.60;14.35;;;11.30;55.60;;;;;;5041519;28;20455;-83
2022/10/21 04:19:02;;;;;;;39.30;14.15;;;11.10;55.50;;;;;;5057856;28;20434;-82
2022/10/21 04:21:32;;;;;;;49.13;14.82;;;11.00;55.90;;;;;;5058392;28;20029;-94
2022/10/21 04:23:57;;;;;;;64.50;15.60;;;11.20;55.90;;;;;;5062170;28;20029;-90
2022/10/21 04:26:23;;;;;;;57.03;14.68;;;11.20;55.70;;;;;;5065755;28;20016;-84
2022/10/21 04:28:49;;;;;;;38.60;13.90;;;11.30;55.70;;;;;;5068544;28;20028;-85
2022/10/21 04:31:14;;;;;;;38.00;14.63;;;11.40;55.80;;;;;;5051267;28;20112;-85
2022/10/21 04:33:40;;;;;;;23.15;13.70;;;11.30;55.90;;;;;;5058033;28;20360;-84
2022/10/21 04:36:06;;;;;;;23.98;14.23;;;11.40;55.60;;;;;;5058416;28;20364;-86
2022/10/21 04:38:32;;;;;;;30.02;14.60;;;11.40;55.40;;;;;;5059341;28;20035;-89
2022/10/21 04:40:59;;;;;;;26.13;13.18;;;11.40;55.60;;;;;;5066695;28;20031;-86
2022/10/21 04:43:26;;;;;;;27.20;13.52;;;11.40;55.40;;;;;;5050241;28;20024;-95
2022/10/21 04:45:52;;;;;;;23.75;13.35;;;11.30;55.10;;;;;;5053057;28;20484;-94
2022/10/21 04:48:19;;;;;;;26.40;14.63;;;11.10;55.50;;;;;;5053074;28;20048;-83
2022/10/21 04:50:47;;;;;;;30.85;13.85;;;11.10;56.70;;;;;;5052595;28;20391;-93
2022/10/21 04:53:12;;;;;;;32.92;15.05;;;11.20;56.10;;;;;;5050838;28;20036;-84
2022/10/21 04:55:39;;;;;;;32.00;14.85;;;11.20;56.30;;;;;;5055452;28;20012;-84
2022/10/21 04:58:05;;;;;;;43.45;16.27;;;11.40;56.10;;;;;;5063747;28;20024;-93
2022/10/21 05:00:31;;;;;;;41.67;16.30;;;11.60;56.00;;;;;;5055654;28;20018;-83
2022/10/21 05:02:57;;;;;;;37.28;15.88;;;11.60;55.70;;;;;;5057740;28;20036;-85
2022/10/21 05:05:23;;;;;;;45.45;16.75;;;11.60;55.70;;;;;;5057264;28;20029;-89
2022/10/21 05:07:49;;;;;;;57.00;16.27;;;11.60;55.80;;;;;;5051710;28;20041;-87
2022/10/21 05:10:14;;;;;;;41.20;15.80;;;11.60;56.20;;;;;;5062311;28;20382;-82
2022/10/21 05:12:40;;;;;;;27.33;15.48;;;11.60;56.30;;;;;;5049925;28;20049;-83
2022/10/21 05:15:06;;;;;;;29.55;16.88;;;11.60;56.20;;;;;;5045066;28;20025;-94
2022/10/21 05:17:32;;;;;;;27.70;16.10;;;11.70;56.00;;;;;;5041638;28;20061;-94
2022/10/21 05:20:05;;;;;;;32.78;16.15;;;11.80;55.80;;;;;;5055369;28;20021;-88
2022/10/21 05:22:31;;;;;;;27.40;15.73;;;11.80;56.10;;;;;;5046506;28;20031;-92
2022/10/21 05:24:57;;;;;;;28.33;14.93;;;11.70;56.20;;;;;;5058003;28;20028;-94
2022/10/21 05:27:22;;;;;;;25.70;15.18;;;11.70;55.90;;;;;;5053934;28;20463;-84
2022/10/21 05:29:48;;;;;;;32.75;15.93;;;11.60;56.10;;;;;;5050489;28;20017;-82
2022/10/21 05:32:14;;;;;;;42.15;17.33;;;11.70;56.00;;;;;;5038427;28;20033;-83
2022/10/21 05:34:39;;;;;;;43.00;18.67;;;11.90;56.10;;;;;;5044167;28;20021;-90
2022/10/21 05:37:05;;;;;;;38.30;18.33;;;11.90;55.70;;;;;;5039314;28;20026;-83
2022/10/21 05:39:31;;;;;;;33.63;17.33;;;11.90;56.30;;;;;;5040222;28;20032;-88
2022/10/21 05:41:57;;;;;;;40.72;19.08;;;12.00;55.50;;;;;;5035793;28;20049;-91
2022/10/21 05:44:22;;;;;;;36.88;18.35;;;11.90;55.60;;;;;;5040886;28;20033;-88
2022/10/21 05:46:48;;;;;;;43.83;21.20;;;11.90;55.70;;;;;;5054514;28;20072;-80
2022/10/21 05:49:13;;;;;;;48.70;22.95;;;11.90;56.00;;;;;;5040373;28;20391;-80
2022/10/21 05:51:39;;;;;;;46.63;22.13;;;12.00;56.00;;;;;;5039974;28;20457;-81
2022/10/21 05:54:05;;;;;;;40.83;21.88;;;12.20;55.90;;;;;;5044644;28;20112;-90
2022/10/21 05:56:31;;;;;;;39.33;20.25;;;12.20;56.00;;;;;;5039972;28;20377;-89
2022/10/21 05:58:57;;;;;;;54.35;22.88;;;12.40;55.90;;;;;;4689954;28;10000525;-83
2022/10/21 06:01:23;;;;;;;61.42;25.67;;;12.50;55.70;;;;;;5046625;28;20363;-87
2022/10/21 06:03:48;;;;;;;61.58;23.23;;;12.60;55.50;;;;;;5037404;28;20036;-82
2022/10/21 06:06:14;;;;;;;44.58;20.00;;;12.70;56.00;;;;;;5041802;28;20468;-91
2022/10/21 06:08:40;;;;;;;39.63;18.92;;;12.70;56.10;;;;;;5047423;28;20037;-93
2022/10/21 06:11:09;;;;;;;38.40;18.67;;;12.80;56.30;;;;;;5036709;28;20034;-95
2022/10/21 06:13:35;;;;;;;25.30;15.90;;;12.60;57.60;;;;;;5038377;28;20022;-86
2022/10/21 06:16:03;;;;;;;26.50;15.32;;;12.40;58.20;;;;;;5035875;28;20460;-96
2022/10/21 06:18:28;;;;;;;26.00;15.48;;;11.80;60.70;;;;;;5037645;28;20132;-92
2022/10/21 06:20:54;;;;;;;27.98;16.00;;;12.10;60.10;;;;;;5033129;28;20486;-86
2022/10/21 06:23:20;;;;;;;59.45;26.88;;;12.40;59.70;;;;;;5037849;28;20028;-96
2022/10/21 06:26:01;;;;;;;62.33;28.35;;;12.60;59.40;;;;;;5040412;28;20030;-90
2022/10/21 06:28:28;;;;;;;50.50;29.85;;;11.90;61.20;;;;;;5023229;28;20010;-86
2022/10/21 06:30:54;;;;;;;78.13;43.15;;;11.60;62.70;;;;;;5033227;28;20329;-91
2022/10/21 06:33:19;;;;;;;67.05;37.95;;;12.00;62.60;;;;;;5042988;28;20468;-93
2022/10/21 06:35:45;;;;;;;110.55;48.92;;;12.60;61.40;;;;;;5046538;28;20021;-91
2022/10/21 06:38:11;;;;;;;155.02;68.78;;;13.00;60.80;;;;;;5049889;28;20018;-85
2022/10/21 06:40:37;;;;;;;146.13;68.15;;;13.40;60.10;;;;;;5046603;28;20029;-82
2022/10/21 06:43:03;;;;;;;64.45;33.97;;;13.80;59.30;;;;;;5035848;28;20080;-96
2022/10/21 06:45:29;;;;;;;61.28;31.30;;;13.50;59.30;;;;;;5040829;28;20033;-87
2022/10/21 06:47:54;;;;;;;59.20;30.10;;;13.10;60.70;;;;;;5053760;28;20029;-83
2022/10/21 06:50:20;;;;;;;69.10;36.15;;;13.30;61.00;;;;;;5055635;28;20083;-88
2022/10/21 06:52:49;;;;;;;66.35;31.92;;;13.50;60.30;;;;;;5042944;28;20080;-92
2022/10/21 06:55:15;;;;;;;30.58;17.20;;;13.60;60.30;;;;;;5016383;28;20025;-89
2022/10/21 06:57:41;;;;;;;27.13;16.60;;;13.80;60.30;;;;;;5015606;28;20112;-88
2022/10/21 07:00:08;;;;;;;27.10;17.00;;;14.10;59.90;;;;;;5044855;28;20029;-91
2022/10/21 07:02:33;;;;;;;23.42;15.50;;;14.40;59.50;;;;;;5036637;28;20025;-83
2022/10/21 07:04:59;;;;;;;22.42;14.15;;;14.70;58.70;;;;;;5040292;28;20025;-94
2022/10/21 07:07:25;;;;;;;22.27;14.05;;;14.90;58.20;;;;;;5036768;28;20037;-78
2022/10/21 07:09:50;;;;;;;22.08;14.43;;;15.00;57.60;;;;;;5056647;28;20067;-95
2022/10/21 07:12:17;;;;;;;19.95;13.27;;;15.10;57.90;;;;;;5042802;28;20026;-90
2022/10/21 07:14:42;;;;;;;21.33;12.93;;;15.10;57.60;;;;;;5028811;28;20057;-86
2022/10/21 07:17:08;;;;;;;17.83;12.52;;;15.30;56.80;;;;;;5032398;28;20045;-94
2022/10/21 07:19:34;;;;;;;20.08;11.43;;;14.60;57.50;;;;;;5037972;28;20072;-93
2022/10/21 07:22:00;;;;;;;20.40;13.05;;;14.30;58.80;;;;;;5033594;28;20018;-91
2022/10/21 07:24:25;;;;;;;20.98;13.30;;;14.70;58.40;;;;;;5035632;28;20029;-84
2022/10/21 07:26:51;;;;;;;23.05;13.82;;;15.00;57.50;;;;;;5033354;28;20112;-83
2022/10/21 07:29:17;;;;;;;24.80;13.95;;;15.10;58.00;;;;;;5035366;28;20361;-84
2022/10/21 07:31:44;;;;;;;21.20;13.57;;;15.50;57.40;;;;;;5038404;28;20045;-91
2022/10/21 07:34:11;;;;;;;19.25;13.07;;;15.70;57.00;;;;;;5050267;28;20082;-86
2022/10/21 07:36:40;;;;;;;19.90;13.20;;;15.90;56.50;;;;;;5053300;28;20049;-92
2022/10/21 07:39:11;;;;;;;17.00;11.95;;;15.90;55.90;;;;;;5047501;28;20032;-90
2022/10/21 07:41:40;;;;;;;18.10;11.05;;;15.60;55.80;;;;;;5038937;28;20460;-87
2022/10/21 07:44:07;;;;;;;16.63;11.20;;;15.70;56.70;;;;;;5034338;28;20399;-86
2022/10/21 07:46:33;;;;;;;17.10;11.88;;;15.20;56.60;;;;;;5044682;28;20028;-87
2022/10/21 07:48:59;;;;;;;17.13;10.32;;;14.80;58.10;;;;;;5053126;28;20028;-86
2022/10/21 07:51:25;;;;;;;14.65;9.57;;;15.00;57.30;;;;;;5048019;28;20018;-83
2022/10/21 07:53:54;;;;;;;15.02;9.85;;;15.20;57.10;;;;;;5050492;28;20024;-82
2022/10/21 07:56:25;;;;;;;14.55;9.95;;;15.20;57.00;;;;;;5032998;28;20022;-89
2022/10/21 07:58:51;;;;;;;14.38;9.77;;;14.80;58.20;;;;;;4682538;28;10000454;-90
2022/10/21 08:01:19;;;;;;;15.50;10.82;;;14.80;57.70;;;;;;5031649;28;20112;-88
2022/10/21 08:03:45;;;;;;;14.75;9.77;;;15.10;58.00;;;;;;5031264;28;20468;-88
2022/10/21 08:06:13;;;;;;;16.05;11.82;;;15.40;57.00;;;;;;5032269;28;20025;-85
2022/10/21 08:08:40;;;;;;;16.40;9.38;;;15.50;56.40;;;;;;5034319;28;20462;-87
2022/10/21 08:11:06;;;;;;;14.88;8.88;;;15.60;56.60;;;;;;5031580;28;20029;-84
2022/10/21 08:13:33;;;;;;;13.88;7.95;;;15.60;56.60;;;;;;5049898;28;20112;-82
2022/10/21 08:16:00;;;;;;;20.17;12.27;;;15.80;56.80;;;;;;5026264;28;20061;-85
2022/10/21 08:18:26;;;;;;;14.68;9.38;;;16.10;54.90;;;;;;5032917;28;20025;-80
2022/10/21 08:20:53;;;;;;;12.88;8.40;;;15.80;54.70;;;;;;5032870;28;20053;-84
2022/10/21 08:23:21;;;;;;;13.48;8.30;;;15.20;56.40;;;;;;5030649;28;20029;-83
2022/10/21 08:25:53;;;;;;;13.25;8.98;;;15.10;56.30;;;;;;5032342;28;20014;-86
2022/10/21 08:28:20;;;;;;;15.45;9.20;;;15.40;56.90;;;;;;5027569;28;20356;-81
2022/10/21 08:30:45;;;;;;;20.20;11.18;;;15.80;55.90;;;;;;5039258;28;20048;-83
2022/10/21 08:33:13;;;;;;;18.02;9.95;;;15.30;56.60;;;;;;5052214;28;20109;-82
2022/10/21 08:35:39;;;;;;;17.40;9.82;;;15.50;57.30;;;;;;5053365;28;20021;-91
2022/10/21 08:38:06;;;;;;;15.50;9.70;;;16.10;55.70;;;;;;5052310;28;20017;-82
2022/10/21 08:40:45;;;;;;;14.10;8.25;;;16.60;54.40;;;;;;5053277;28;20032;-85
2022/10/21 08:43:33;;;;;;;15.55;9.55;;;16.40;54.20;;;;;;5052319;28;20033;-84
2022/10/21 08:46:08;;;;;;;14.70;8.38;;;16.10;53.60;;;;;;5052902;28;20352;-83
2022/10/21 08:48:50;;;;;;;16.73;8.60;;;15.20;55.30;;;;;;5051867;28;20048;-85
2022/10/21 08:51:38;;;;;;;12.85;8.20;;;15.30;56.50;;;;;;5055529;28;20043;-84
2022/10/21 08:54:11;;;;;;;15.40;8.15;;;15.10;56.50;;;;;;5055570;28;20116;-82
2022/10/21 08:56:37;;;;;;;17.63;8.45;;;15.50;55.70;;;;;;5056496;28;20025;-82
2022/10/21 08:59:02;;;;;;;15.68;9.48;;;15.20;57.20;;;;;;5055331;28;20013;-84
2022/10/21 09:01:50;;;;;;;14.38;8.40;;;15.90;55.60;;;;;;5056312;28;20082;-85
2022/10/21 09:04:52;;;;;;;9.95;7.35;;;16.40;54.00;;;;;;5055776;28;20044;-82
2022/10/21 09:07:47;;;;;;;12.50;7.82;;;16.70;53.80;;;;;;5055025;28;20479;-82
2022/10/21 09:10:23;;;;;;;16.05;9.05;;;17.20;53.40;;;;;;5054550;28;20029;-81
2022/10/21 09:13:12;;;;;;;14.50;9.18;;;17.10;52.70;;;;;;5055148;28;20032;-79
2022/10/21 09:16:00;;;;;;;13.15;8.02;;;17.00;53.60;;;;;;5055326;28;20013;-82
2022/10/21 09:18:40;;;;;;;16.00;8.10;;;17.10;53.10;;;;;;5056613;28;20478;-86
2022/10/21 09:21:16;;;;;;;645.75;48.40;;;17.00;53.00;;;;;;5056054;28;20028;-81
2022/10/21 09:23:57;;;;;;;16.80;7.80;;;17.30;53.10;;;;;;5054417;28;20079;-82
2022/10/21 09:26:33;;;;;;;16.67;8.98;;;17.60;52.90;;;;;;5056396;28;20118;-82
2022/10/21 09:29:14;;;;;;;13.00;7.75;;;17.70;52.30;;;;;;5056216;28;20021;-83
2022/10/21 09:31:41;;;;;;;12.52;7.95;;;17.90;52.00;;;;;;5055983;28;20012;-83
2022/10/21 09:34:18;;;;;;;13.30;8.15;;;18.00;52.30;;;;;;5056100;28;20426;-86
2022/10/21 09:36:47;;;;;;;11.48;7.53;;;17.30;52.10;;;;;;5054693;28;20456;-80
2022/10/21 09:39:36;;;;;;;13.38;8.10;;;16.60;53.90;;;;;;5055851;28;20021;-82
2022/10/21 09:42:02;;;;;;;13.70;8.63;;;16.00;55.30;;;;;;5053706;28;20035;-83
2022/10/21 09:44:28;;;;;;;15.35;8.30;;;16.40;55.50;;;;;;5055797;28;20021;-85
2022/10/21 09:46:54;;;;;;;14.75;8.30;;;16.80;54.90;;;;;;5054447;28;20452;-85
2022/10/21 09:49:25;;;;;;;13.00;8.65;;;17.30;53.70;;;;;;5054718;28;20024;-85
2022/10/21 09:51:52;;;;;;;15.05;8.13;;;17.70;53.10;;;;;;5054296;28;20024;-85
2022/10/21 09:54:22;;;;;;;16.52;10.07;;;17.70;53.40;;;;;;5054066;28;20031;-81
2022/10/21 09:57:12;;;;;;;19.87;8.30;;;17.90;53.50;;;;;;5054593;28;20070;-83
2022/10/21 09:59:57;;;;;;;26.50;24.35;;;18.20;51.90;;;;;;5054206;28;20783;-83
2022/10/21 10:02:35;;;;;;;10.95;7.47;;;18.50;51.80;;;;;;5055784;28;20036;-83
2022/10/21 10:05:21;;;;;;;13.52;7.38;;;18.20;51.40;;;;;;5054400;28;20027;-80
2022/10/21 10:07:47;;;;;;;12.73;6.45;;;17.60;52.80;;;;;;5055017;28;20124;-91
2022/10/21 10:10:31;;;;;;;11.13;7.13;;;17.30;52.90;;;;;;5055295;28;20100;-83
2022/10/21 10:12:58;;;;;;;11.57;7.78;;;17.60;52.30;;;;;;5055572;28;20021;-83
2022/10/21 10:15:35;;;;;;;12.65;8.20;;;17.20;52.40;;;;;;5055387;28;20360;-90
2022/10/21 10:18:02;;;;;;;14.70;6.80;;;16.80;53.10;;;;;;5053623;28;20028;-86
2022/10/21 10:20:28;;;;;;;10.48;6.97;;;16.80;53.30;;;;;;5055256;28;20332;-86
2022/10/21 10:22:59;;;;;;;10.55;6.68;;;16.80;53.10;;;;;;5055261;28;20472;-82
2022/10/21 10:25:32;;;;;;;10.20;6.13;;;16.30;54.10;;;;;;5055349;28;20024;-82
2022/10/21 10:28:00;;;;;;;12.50;6.50;;;16.40;54.20;;;;;;5055415;28;20379;-84
2022/10/21 10:30:44;;;;;;;11.80;6.22;;;16.20;54.50;;;;;;5055153;28;20025;-81
2022/10/21 10:33:20;;;;;;;12.38;7.20;;;16.80;53.70;;;;;;5056383;28;20036;-80
2022/10/21 10:35:51;;;;;;;12.43;6.88;;;17.10;53.20;;;;;;5054247;28;20116;-82
2022/10/21 10:38:44;;;;;;;8.77;5.47;;;16.60;53.50;;;;;;5054802;28;20072;-84
2022/10/21 10:41:14;;;;;;;8.82;5.97;;;16.70;53.10;;;;;;5053822;28;20375;-83
2022/10/21 10:43:46;;;;;;;12.35;5.50;;;16.10;54.00;;;;;;5054641;28;20110;-83
2022/10/21 10:46:26;;;;;;;10.38;5.03;;;16.50;54.30;;;;;;5053474;28;20048;-81
2022/10/21 10:48:53;;;;;;;7.25;5.18;;;17.00;53.50;;;;;;5053983;28;20405;-87
2022/10/21 10:51:26;;;;;;;8.80;5.28;;;16.70;52.90;;;;;;5053586;28;20025;-80
2022/10/21 10:54:05;;;;;;;11.77;5.55;;;16.60;53.80;;;;;;5053928;28;20455;-93
2022/10/21 10:56:37;;;;;;;8.95;6.10;;;16.50;53.30;;;;;;5053942;28;20024;-90
2022/10/21 10:59:21;;;;;;;11.20;6.75;;;16.70;52.50;;;;;;5053494;28;20025;-82
2022/10/21 11:01:59;;;;;;;10.85;5.70;;;16.80;53.20;;;;;;5053678;28;20416;-82
2022/10/21 11:04:36;;;;;;;12.82;7.85;;;16.20;53.40;;;;;;5054754;28;20033;-83
2022/10/21 11:07:28;;;;;;;20.17;11.45;;;16.10;54.10;;;;;;5053112;28;20037;-93
2022/10/21 11:10:01;;;;;;;10.30;6.47;;;15.90;54.80;;;;;;5053220;28;20059;-80
2022/10/21 11:12:27;;;;;;;9.55;5.97;;;16.30;53.50;;;;;;5053499;28;20024;-80
2022/10/21 11:14:55;;;;;;;9.98;5.18;;;16.60;53.10;;;;;;5053654;28;20029;-80
2022/10/21 11:17:29;;;;;;;20.98;9.88;;;17.10;52.70;;;;;;5053062;28;20063;-81
2022/10/21 11:20:12;;;;;;;11.55;7.63;;;17.00;52.60;;;;;;5053074;28;20098;-84
2022/10/21 11:23:21;;;;;;;14.05;6.72;;;16.70;52.30;;;;;;5052898;28;20387;-85
2022/10/21 11:25:54;;;;;;;12.30;7.13;;;16.60;53.40;;;;;;5052799;28;20074;-83
2022/10/21 11:28:35;;;;;;;9.27;5.57;;;16.50;52.80;;;;;;5054151;28;20467;-80
2022/10/21 11:31:12;;;;;;;8.80;6.10;;;16.30;53.30;;;;;;5053986;28;20032;-80
2022/10/21 11:33:49;;;;;;;10.13;6.70;;;15.90;53.50;;;;;;5052914;28;20032;-86
2022/10/21 11:36:44;;;;;;;11.18;6.22;;;16.00;53.80;;;;;;5053887;28;20025;-80
2022/10/21 11:39:12;;;;;;;9.75;5.93;;;16.10;53.50;;;;;;5052237;28;20103;-90
2022/10/21 11:41:48;;;;;;;10.77;5.45;;;16.10;53.40;;;;;;5053732;28;20017;-85
2022/10/21 11:44:38;;;;;;;11.10;6.78;;;15.80;54.80;;;;;;5053441;28;20061;-87
2022/10/21 11:47:22;;;;;;;7.53;5.13;;;15.90;53.80;;;;;;5052616;28;20021;-80
2022/10/21 11:50:19;;;;;;;8.23;5.25;;;16.40;53.70;;;;;;5053955;28;20017;-84
2022/10/21 11:53:27;;;;;;;11.75;6.00;;;16.10;52.60;;;;;;5048133;28;20021;-82
2022/10/21 11:56:22;;;;;;;20.38;6.25;;;15.70;53.90;;;;;;5052499;28;20112;-83
2022/10/21 11:58:59;;;;;;;10.93;4.75;;;15.60;54.10;;;;;;5053426;28;20021;-86
2022/10/21 12:01:32;;;;;;;7.38;5.20;;;15.70;54.40;;;;;;5052167;28;20395;-81
2022/10/21 12:04:43;;;;;;;9.77;5.93;;;15.90;54.50;;;;;;5052279;28;20029;-81
2022/10/21 12:07:35;;;;;;;;;;;17.00;53.10;;;;;;4991985;28;20042;-80
2022/10/21 12:10:15;;;;;;;14.23;7.10;;;17.80;51.70;;;;;;4988776;28;20330;-80
2022/10/21 12:12:45;;;;;;;8.13;5.47;;;18.10;50.60;;;;;;4992305;28;20037;-82
2022/10/21 12:15:18;;;;;;;8.75;5.80;;;17.80;50.80;;;;;;4976716;28;20418;-82
2022/10/21 12:17:46;;;;;;;11.98;5.93;;;17.10;52.10;;;;;;4976155;28;20026;-84
2022/10/21 12:20:20;;;;;;;8.48;5.13;;;17.20;52.40;;;;;;4975919;28;20022;-80
2022/10/21 12:22:46;;;;;;;9.40;5.60;;;17.30;51.90;;;;;;4992323;28;20073;-82
2022/10/21 12:25:32;;;;;;;7.03;4.90;;;17.30;51.60;;;;;;4995033;28;20109;-83
2022/10/21 12:28:04;;;;;;;18.50;7.68;;;17.50;51.30;;;;;;4979897;28;20025;-79
2022/10/21 12:30:54;;;;;;;9.57;5.50;;;17.60;50.40;;;;;;4995791;28;20038;-82
2022/10/21 12:33:40;;;;;;;9.40;5.50;;;16.80;51.60;;;;;;4996221;28;20036;-86
2022/10/21 12:36:23;;;;;;;8.18;5.35;;;16.70;52.20;;;;;;4996075;28;20041;-84
2022/10/21 12:38:56;;;;;;;9.73;6.57;;;16.50;53.30;;;;;;4996211;28;20493;-85
2022/10/21 12:41:31;;;;;;;21.95;11.20;;;16.70;52.70;;;;;;4996337;28;20402;-85
2022/10/21 12:43:59;;;;;;;9.30;5.97;;;16.90;52.00;;;;;;5025890;28;20489;-87
2022/10/21 12:46:32;;;;;;;7.57;5.18;;;17.50;51.40;;;;;;5057113;28;20024;-87
2022/10/21 12:49:03;;;;;;;14.73;8.55;;;17.80;51.20;;;;;;5056747;28;20025;-87
2022/10/21 12:51:31;;;;;;;22.70;13.23;;;17.80;49.70;;;;;;5055274;28;20048;-85
2022/10/21 12:54:07;;;;;;;18.33;10.20;;;17.90;50.20;;;;;;5056335;28;20021;-82